createdAt,value
2024-01-24T00:00:23.175Z,12.81
2024-01-24T00:02:50.400Z,12.82
2024-01-24T00:05:17.608Z,12.82
2024-01-24T00:07:44.619Z,12.76
2024-01-24T00:10:12.351Z,12.75
2024-01-24T00:12:39.136Z,12.76
2024-01-24T00:15:06.388Z,12.56
2024-01-24T00:17:33.095Z,12.72
2024-01-24T00:19:59.766Z,12.69
2024-01-24T00:22:27.295Z,12.69
2024-01-24T00:24:54.002Z,12.67
2024-01-24T00:27:20.704Z,12.65
2024-01-24T00:29:47.616Z,12.64
2024-01-24T00:32:14.279Z,12.64
2024-01-24T00:34:41.193Z,12.60
2024-01-24T00:37:08.084Z,12.59
2024-01-24T00:39:34.910Z,12.62
2024-01-24T00:42:01.816Z,12.62
2024-01-24T00:44:28.876Z,12.15
2024-01-24T00:46:55.478Z,12.59
2024-01-24T00:49:23.821Z,12.51
2024-01-24T00:51:50.667Z,12.55
2024-01-24T00:54:17.416Z,12.55
2024-01-24T00:56:44.166Z,12.53
2024-01-24T00:59:10.828Z,12.51
2024-01-24T01:01:38.041Z,12.47
2024-01-24T01:04:05.437Z,12.49
2024-01-24T01:06:32.394Z,12.45
2024-01-24T01:09:01.302Z,12.45
2024-01-24T01:11:27.974Z,12.44
2024-01-24T01:13:54.628Z,12.42
2024-01-24T01:16:21.251Z,12.40
2024-01-24T01:18:47.944Z,12.37
2024-01-24T01:21:14.666Z,12.35
2024-01-24T01:23:41.502Z,12.39
2024-01-24T01:26:08.148Z,12.37
2024-01-24T01:28:35.577Z,12.35
2024-01-24T01:31:02.278Z,12.37
2024-01-24T01:33:29.062Z,12.24
2024-01-24T01:36:08.390Z,12.32
2024-01-24T01:38:41.510Z,12.26
2024-01-24T01:41:08.120Z,12.28
2024-01-24T01:43:34.770Z,12.28
2024-01-24T01:46:11.601Z,12.18
2024-01-24T01:48:39.404Z,12.25
2024-01-24T01:51:07.447Z,12.25
2024-01-24T01:53:39.541Z,12.25
2024-01-24T01:56:13.398Z,12.09
2024-01-24T01:58:41.570Z,12.23
2024-01-24T02:01:08.858Z,12.21
2024-01-24T02:03:42.725Z,12.20
2024-01-24T02:06:09.588Z,12.20
2024-01-24T02:08:37.327Z,12.19
2024-01-24T02:11:05.284Z,12.17
2024-01-24T02:13:33.051Z,12.15
2024-01-24T02:16:00.342Z,12.14
2024-01-24T02:18:27.134Z,12.14
2024-01-24T02:20:55.034Z,12.10
2024-01-24T02:23:26.766Z,12.07
2024-01-24T02:25:54.206Z,12.08
2024-01-24T02:28:21.224Z,12.05
2024-01-24T02:30:47.928Z,11.97
2024-01-24T02:33:14.709Z,11.97
2024-01-24T02:35:41.412Z,11.97
2024-01-24T02:38:08.074Z,11.98
2024-01-24T02:40:34.827Z,11.92
2024-01-24T02:43:01.545Z,11.92
2024-01-24T02:45:28.276Z,11.91
2024-01-24T02:47:54.963Z,11.91
2024-01-24T02:50:21.693Z,11.90
2024-01-24T02:52:48.561Z,11.91
2024-01-24T02:55:18.398Z,11.92
2024-01-24T02:57:45.435Z,11.92
2024-01-24T03:00:16.958Z,11.91
2024-01-24T03:02:44.217Z,11.92
2024-01-24T03:05:11.144Z,11.93
2024-01-24T03:07:38.997Z,11.92
2024-01-24T03:10:06.423Z,11.90
2024-01-24T03:12:33.937Z,11.89
2024-01-24T03:15:01.496Z,11.91
2024-01-24T03:17:28.187Z,11.89
2024-01-24T03:19:54.970Z,11.88
2024-01-24T03:22:21.953Z,11.86
2024-01-24T03:24:48.630Z,11.84
2024-01-24T03:27:15.473Z,11.81
2024-01-24T03:29:43.652Z,11.76
2024-01-24T03:32:10.913Z,11.76
2024-01-24T03:34:38.076Z,11.72
2024-01-24T03:37:05.098Z,11.71
2024-01-24T03:39:31.734Z,11.71
2024-01-24T03:41:58.458Z,11.70
2024-01-24T03:44:25.095Z,11.69
2024-01-24T03:46:51.805Z,11.56
2024-01-24T03:49:21.826Z,11.68
2024-01-24T03:51:49.143Z,11.66
2024-01-24T03:54:16.455Z,11.69
2024-01-24T03:56:43.165Z,11.62
2024-01-24T03:59:09.797Z,11.68
2024-01-24T04:01:36.692Z,11.68
2024-01-24T04:04:03.896Z,11.66
2024-01-24T04:06:31.564Z,11.64
2024-01-24T04:08:58.223Z,11.65
2024-01-24T04:11:25.238Z,11.65
2024-01-24T04:13:57.616Z,11.61
2024-01-24T04:16:24.525Z,11.62
2024-01-24T04:18:53.916Z,11.60
2024-01-24T04:21:20.743Z,11.53
2024-01-24T04:23:47.418Z,11.54
2024-01-24T04:26:14.108Z,11.48
2024-01-24T04:28:40.801Z,11.50
2024-01-24T04:31:07.473Z,11.48
2024-01-24T04:33:34.227Z,11.46
2024-01-24T04:36:01.345Z,11.41
2024-01-24T04:38:28.133Z,11.43
2024-01-24T04:40:54.812Z,11.42
2024-01-24T04:43:21.444Z,11.42
2024-01-24T04:45:48.158Z,11.40
2024-01-24T04:48:14.898Z,11.35
2024-01-24T04:50:41.930Z,11.40
2024-01-24T04:53:09.074Z,11.38
2024-01-24T04:55:35.786Z,11.39
2024-01-24T04:58:03.544Z,11.38
2024-01-24T05:00:30.414Z,11.36
2024-01-24T05:02:57.170Z,11.37
2024-01-24T05:05:23.846Z,11.38
2024-01-24T05:07:50.463Z,11.32
2024-01-24T05:10:17.366Z,11.37
2024-01-24T05:12:44.086Z,11.36
2024-01-24T05:15:12.265Z,11.34
2024-01-24T05:17:40.522Z,11.34
2024-01-24T05:20:18.488Z,11.31
2024-01-24T05:22:45.299Z,11.24
2024-01-24T05:25:11.997Z,11.31
2024-01-24T05:27:38.700Z,11.30
2024-01-24T05:30:15.837Z,11.30
2024-01-24T05:32:47.328Z,11.30
2024-01-24T05:35:13.953Z,11.30
2024-01-24T05:37:40.803Z,11.30
2024-01-24T05:40:09.150Z,11.31
2024-01-24T05:42:35.934Z,11.29
2024-01-24T05:45:03.042Z,11.28
2024-01-24T05:47:29.816Z,11.25
2024-01-24T05:49:56.577Z,11.20
2024-01-24T05:52:23.212Z,11.23
2024-01-24T05:54:49.871Z,11.21
2024-01-24T05:57:16.643Z,11.20
2024-01-24T05:59:43.359Z,11.13
2024-01-24T06:02:11.243Z,11.18
2024-01-24T06:04:38.040Z,11.15
2024-01-24T06:07:05.820Z,11.13
2024-01-24T06:09:32.670Z,11.11
2024-01-24T06:12:00.345Z,11.10
2024-01-24T06:14:26.965Z,11.09
2024-01-24T06:16:53.602Z,11.07
2024-01-24T06:19:20.366Z,11.06
2024-01-24T06:21:47.115Z,11.03
2024-01-24T06:24:13.907Z,11.01
2024-01-24T06:26:40.683Z,11.02
2024-01-24T06:29:08.129Z,10.94
2024-01-24T06:31:34.814Z,10.96
2024-01-24T06:34:01.832Z,10.95
2024-01-24T06:36:30.098Z,10.90
2024-01-24T06:38:56.771Z,10.91
2024-01-24T06:41:23.446Z,10.89
2024-01-24T06:43:50.135Z,10.84
2024-01-24T06:46:18.733Z,10.85
2024-01-24T06:48:45.586Z,10.84
2024-01-24T06:51:14.322Z,10.83
2024-01-24T06:53:41.164Z,10.82
2024-01-24T06:56:09.661Z,10.76
2024-01-24T06:58:38.744Z,10.75
2024-01-24T07:01:05.707Z,10.76
2024-01-24T07:03:32.517Z,10.63
2024-01-24T07:05:59.597Z,10.71
2024-01-24T07:08:26.247Z,10.61
2024-01-24T07:10:52.911Z,10.69
2024-01-24T07:13:20.371Z,10.67
2024-01-24T07:15:47.063Z,10.65
2024-01-24T07:18:13.822Z,10.64
2024-01-24T07:20:40.546Z,10.59
2024-01-24T07:23:08.295Z,10.60
2024-01-24T07:25:34.939Z,10.58
2024-01-24T07:28:01.723Z,10.57
2024-01-24T07:30:29.135Z,10.56
2024-01-24T07:32:55.990Z,10.50
2024-01-24T07:35:22.779Z,10.52
2024-01-24T07:37:49.388Z,10.53
2024-01-24T07:40:16.517Z,10.53
2024-01-24T07:42:43.900Z,10.51
2024-01-24T07:45:10.792Z,10.50
2024-01-24T07:47:37.859Z,10.41
2024-01-24T07:50:06.240Z,10.49
2024-01-24T07:52:40.622Z,10.47
2024-01-24T07:55:09.786Z,10.47
2024-01-24T07:57:37.252Z,10.46
2024-01-24T08:00:07.437Z,10.44
2024-01-24T08:02:34.885Z,10.44
2024-01-24T08:05:01.825Z,10.45
2024-01-24T08:07:29.256Z,10.44
2024-01-24T08:09:56.058Z,10.44
2024-01-24T08:12:24.703Z,10.43
2024-01-24T08:14:51.448Z,10.45
2024-01-24T08:17:18.255Z,10.45
2024-01-24T08:19:45.961Z,10.43
2024-01-24T08:22:12.768Z,10.44
2024-01-24T08:24:39.412Z,10.43
2024-01-24T08:27:06.116Z,10.43
2024-01-24T08:29:37.376Z,10.42
2024-01-24T08:32:06.547Z,10.40
2024-01-24T08:34:36.512Z,10.40
2024-01-24T08:37:03.630Z,10.41
2024-01-24T08:39:30.324Z,10.43
2024-01-24T08:41:57.645Z,10.41
2024-01-24T08:44:24.310Z,10.40
2024-01-24T08:46:52.109Z,10.40
2024-01-24T08:49:19.200Z,10.37
2024-01-24T08:51:46.146Z,10.41
2024-01-24T08:54:12.931Z,10.39
2024-01-24T08:56:40.276Z,10.37
2024-01-24T08:59:07.303Z,10.40
2024-01-24T09:01:34.102Z,10.42
2024-01-24T09:04:01.063Z,10.44
2024-01-24T09:06:27.791Z,10.49
2024-01-24T09:08:54.814Z,10.47
2024-01-24T09:11:24.342Z,10.58
2024-01-24T09:13:52.838Z,10.60
2024-01-24T09:16:21.171Z,10.67
2024-01-24T09:18:48.123Z,10.72
2024-01-24T09:21:14.880Z,10.76
2024-01-24T09:23:41.517Z,10.82
2024-01-24T09:26:08.483Z,10.90
2024-01-24T09:28:35.342Z,10.95
2024-01-24T09:31:02.147Z,10.94
2024-01-24T09:33:28.989Z,11.09
2024-01-24T09:35:56.413Z,11.20
2024-01-24T09:38:23.234Z,11.29
2024-01-24T09:40:50.612Z,11.36
2024-01-24T09:43:17.940Z,11.45
2024-01-24T09:45:45.709Z,11.47
2024-01-24T09:48:13.034Z,11.59
2024-01-24T09:50:41.469Z,11.66
2024-01-24T09:53:10.527Z,11.58
2024-01-24T09:55:38.046Z,11.81
2024-01-24T09:58:05.858Z,11.89
2024-01-24T10:00:33.544Z,12.00
2024-01-24T10:03:00.467Z,12.10
2024-01-24T10:05:27.781Z,12.18
2024-01-24T10:07:55.937Z,12.24
2024-01-24T10:10:22.947Z,12.38
2024-01-24T10:12:49.793Z,12.49
2024-01-24T10:15:17.065Z,12.62
2024-01-24T10:17:44.750Z,12.75
2024-01-24T10:20:15.705Z,12.90
2024-01-24T10:22:46.837Z,13.03
2024-01-24T10:25:13.859Z,13.10
2024-01-24T10:27:41.412Z,13.20
2024-01-24T10:30:11.409Z,13.32
2024-01-24T10:32:38.537Z,13.45
2024-01-24T10:35:06.395Z,13.54
2024-01-24T10:37:34.007Z,13.60
2024-01-24T10:40:12.889Z,13.57
2024-01-24T10:42:42.829Z,13.53
2024-01-24T10:45:10.612Z,13.48
2024-01-24T10:47:37.664Z,13.45
2024-01-24T10:50:06.396Z,13.43
2024-01-24T10:52:34.466Z,13.45
2024-01-24T10:55:07.608Z,13.43
2024-01-24T10:57:35.940Z,13.42
2024-01-24T11:00:12.013Z,13.41
2024-01-24T11:02:42.287Z,13.39
2024-01-24T11:05:14.173Z,13.38
2024-01-24T11:07:55.092Z,13.43
2024-01-24T11:10:43.839Z,13.47
2024-01-24T11:13:12.643Z,13.50
2024-01-24T11:15:41.563Z,13.54
2024-01-24T11:18:24.955Z,13.51
2024-01-24T11:21:01.892Z,13.39
2024-01-24T11:23:35.891Z,13.45
2024-01-24T11:26:03.266Z,13.38
2024-01-24T11:28:29.958Z,13.32
2024-01-24T11:30:57.253Z,13.28
2024-01-24T11:33:25.019Z,13.18
2024-01-24T11:35:52.752Z,13.18
2024-01-24T11:38:30.060Z,13.14
2024-01-24T11:41:03.847Z,13.01
2024-01-24T11:43:36.495Z,13.02
2024-01-24T11:46:06.996Z,13.00
2024-01-24T11:48:36.766Z,13.00
2024-01-24T11:51:09.283Z,12.94
2024-01-24T11:53:36.390Z,12.98
2024-01-24T11:56:15.857Z,12.86
2024-01-24T11:58:42.761Z,13.00
2024-01-24T12:01:14.488Z,13.03
2024-01-24T12:03:49.846Z,13.09
2024-01-24T12:06:18.247Z,13.10
2024-01-24T12:08:50.375Z,13.10
2024-01-24T12:11:18.437Z,13.10
2024-01-24T12:13:45.966Z,13.05
2024-01-24T12:16:12.819Z,13.04
2024-01-24T12:18:39.756Z,13.04
2024-01-24T12:21:09.692Z,13.01
2024-01-24T12:23:36.654Z,13.02
2024-01-24T12:26:04.390Z,12.99
2024-01-24T12:28:31.606Z,12.96
2024-01-24T12:30:59.042Z,12.97
2024-01-24T12:33:26.289Z,12.94
2024-01-24T12:35:53.117Z,12.97
2024-01-24T12:38:19.891Z,12.96
2024-01-24T12:40:55.546Z,12.97
2024-01-24T12:43:24.132Z,12.95
2024-01-24T12:45:52.619Z,12.99
2024-01-24T12:48:22.919Z,13.01
2024-01-24T12:50:51.130Z,13.02
2024-01-24T12:53:18.352Z,13.05
2024-01-24T12:55:45.056Z,13.09
2024-01-24T12:58:12.009Z,13.16
2024-01-24T13:00:39.090Z,13.24
2024-01-24T13:03:06.622Z,13.31
2024-01-24T13:05:42.200Z,13.27
2024-01-24T13:08:14.047Z,13.43
2024-01-24T13:10:45.202Z,13.44
2024-01-24T13:13:12.734Z,13.46
2024-01-24T13:15:40.767Z,13.45
2024-01-24T13:18:09.401Z,13.43
2024-01-24T13:20:36.662Z,13.41
2024-01-24T13:23:03.368Z,13.36
2024-01-24T13:25:30.396Z,13.37
2024-01-24T13:27:57.949Z,13.36
2024-01-24T13:30:24.979Z,13.38
2024-01-24T13:32:52.511Z,13.38
2024-01-24T13:35:20.176Z,13.37
2024-01-24T13:37:48.367Z,13.34
2024-01-24T13:40:15.537Z,13.34
2024-01-24T13:42:43.537Z,13.29
2024-01-24T13:45:11.325Z,13.26
2024-01-24T13:47:41.868Z,13.20
2024-01-24T13:50:10.744Z,13.20
2024-01-24T13:52:37.794Z,13.18
2024-01-24T13:55:07.702Z,13.14
2024-01-24T13:57:35.752Z,13.17
2024-01-24T14:00:04.751Z,13.18
2024-01-24T14:02:31.736Z,13.18
2024-01-24T14:04:58.831Z,13.14
2024-01-24T14:07:25.661Z,13.06
2024-01-24T14:09:53.381Z,13.08
2024-01-24T14:12:20.031Z,12.98
2024-01-24T14:14:47.034Z,12.98
2024-01-24T14:17:13.773Z,12.90
2024-01-24T14:19:40.486Z,12.86
2024-01-24T14:22:07.884Z,12.80
2024-01-24T14:24:34.718Z,12.73
2024-01-24T14:27:01.438Z,12.67
2024-01-24T14:29:28.076Z,12.65
2024-01-24T14:31:54.751Z,12.58
2024-01-24T14:34:21.569Z,12.50
2024-01-24T14:36:52.420Z,12.47
2024-01-24T14:39:22.963Z,12.43
2024-01-24T14:41:49.880Z,12.39
2024-01-24T14:44:17.372Z,12.25
2024-01-24T14:46:44.102Z,12.27
2024-01-24T14:49:11.388Z,12.29
2024-01-24T14:51:38.182Z,12.23
2024-01-24T14:54:05.092Z,12.22
2024-01-24T14:56:31.739Z,12.22
2024-01-24T14:58:58.466Z,12.18
2024-01-24T15:01:25.702Z,12.19
2024-01-24T15:03:53.294Z,12.18
2024-01-24T15:06:20.354Z,12.22
2024-01-24T15:08:47.872Z,12.23
2024-01-24T15:11:14.892Z,12.20
2024-01-24T15:13:41.664Z,12.19
2024-01-24T15:16:08.506Z,12.10
2024-01-24T15:18:35.608Z,12.16
2024-01-24T15:21:08.909Z,12.19
2024-01-24T15:23:39.681Z,12.16
2024-01-24T15:26:06.830Z,12.18
2024-01-24T15:28:35.725Z,12.15
2024-01-24T15:31:03.728Z,12.13
2024-01-24T15:33:33.242Z,12.15
2024-01-24T15:36:00.270Z,12.15
2024-01-24T15:38:26.979Z,12.12
2024-01-24T15:40:54.447Z,12.14
2024-01-24T15:43:21.529Z,12.13
2024-01-24T15:45:48.462Z,12.10
2024-01-24T15:48:16.272Z,12.07
2024-01-24T15:50:44.144Z,12.06
2024-01-24T15:53:11.881Z,12.05
2024-01-24T15:55:38.770Z,12.02
2024-01-24T15:58:05.540Z,11.93
2024-01-24T16:00:32.585Z,11.96
2024-01-24T16:03:00.945Z,11.95
2024-01-24T16:05:35.398Z,11.91
2024-01-24T16:08:03.875Z,11.86
2024-01-24T16:10:30.849Z,11.86
2024-01-24T16:12:57.565Z,11.84
2024-01-24T16:15:24.286Z,11.82
2024-01-24T16:17:51.200Z,11.81
2024-01-24T16:20:18.271Z,11.77
2024-01-24T16:22:51.085Z,11.75
2024-01-24T16:25:25.884Z,11.74
2024-01-24T16:27:55.048Z,11.70
2024-01-24T16:30:26.389Z,11.67
2024-01-24T16:32:57.102Z,11.62
2024-01-24T16:35:24.376Z,11.61
2024-01-24T16:37:51.408Z,11.57
2024-01-24T16:40:18.236Z,11.54
2024-01-24T16:42:44.908Z,11.49
2024-01-24T16:45:12.517Z,11.47
2024-01-24T16:47:40.178Z,11.40
2024-01-24T16:50:07.801Z,11.41
2024-01-24T16:52:34.656Z,11.36
2024-01-24T16:55:01.796Z,11.35
2024-01-24T16:57:28.782Z,11.31
2024-01-24T16:59:58.245Z,11.31
2024-01-24T17:02:34.208Z,11.29
2024-01-24T17:05:05.572Z,11.24
2024-01-24T17:07:32.387Z,11.24
2024-01-24T17:10:01.248Z,11.23
2024-01-24T17:12:29.051Z,11.22
2024-01-24T17:14:56.024Z,11.22
2024-01-24T17:17:22.807Z,11.19
2024-01-24T17:19:49.537Z,11.17
2024-01-24T17:22:16.619Z,11.14
2024-01-24T17:24:43.342Z,11.11
2024-01-24T17:27:12.697Z,11.06
2024-01-24T17:29:40.327Z,11.08
2024-01-24T17:32:07.265Z,11.03
2024-01-24T17:34:34.337Z,11.01
2024-01-24T17:37:01.085Z,11.02
2024-01-24T17:39:28.290Z,11.01
2024-01-24T17:41:55.267Z,10.98
2024-01-24T17:44:22.297Z,10.98
2024-01-24T17:46:49.005Z,10.95
2024-01-24T17:49:16.734Z,10.94
2024-01-24T17:51:44.390Z,10.92
2024-01-24T17:54:11.246Z,10.91
2024-01-24T17:56:38.394Z,10.87
2024-01-24T17:59:05.111Z,10.86
2024-01-24T18:01:32.598Z,10.83
2024-01-24T18:03:59.588Z,10.82
2024-01-24T18:06:26.976Z,10.80
2024-01-24T18:08:54.345Z,10.80
2024-01-24T18:11:20.996Z,10.73
2024-01-24T18:13:48.261Z,10.76
2024-01-24T18:16:15.486Z,10.74
2024-01-24T18:18:42.390Z,10.69
2024-01-24T18:21:11.049Z,10.70
2024-01-24T18:23:38.268Z,10.70
2024-01-24T18:26:05.026Z,10.63
2024-01-24T18:28:31.716Z,10.66
2024-01-24T18:30:58.443Z,10.64
2024-01-24T18:33:25.576Z,10.66
2024-01-24T18:35:52.650Z,10.60
2024-01-24T18:38:19.512Z,10.62
2024-01-24T18:40:46.211Z,10.61
2024-01-24T18:43:13.140Z,10.62
2024-01-24T18:45:39.958Z,10.62
2024-01-24T18:48:07.402Z,10.60
2024-01-24T18:50:34.241Z,10.60
2024-01-24T18:53:01.040Z,10.61
2024-01-24T18:55:28.119Z,10.59
2024-01-24T18:57:55.309Z,10.56
2024-01-24T19:00:23.480Z,10.53
2024-01-24T19:02:50.872Z,10.57
2024-01-24T19:05:23.798Z,10.48
2024-01-24T19:07:57.781Z,10.50
2024-01-24T19:10:24.735Z,10.49
2024-01-24T19:12:51.673Z,10.47
2024-01-24T19:15:20.836Z,10.42
2024-01-24T19:17:49.090Z,10.38
2024-01-24T19:20:18.764Z,10.36
2024-01-24T19:22:45.778Z,10.30
2024-01-24T19:25:12.612Z,10.29
2024-01-24T19:27:39.393Z,10.25
2024-01-24T19:30:07.420Z,10.23
2024-01-24T19:32:34.160Z,10.17
2024-01-24T19:35:03.978Z,10.17
2024-01-24T19:37:31.655Z,10.12
2024-01-24T19:39:58.343Z,10.07
2024-01-24T19:42:25.210Z,10.05
2024-01-24T19:44:52.543Z,9.94
2024-01-24T19:47:29.009Z,9.94
2024-01-24T19:49:56.948Z,9.92
2024-01-24T19:52:24.093Z,9.87
2024-01-24T19:54:51.083Z,9.77
2024-01-24T19:57:18.229Z,9.82
2024-01-24T19:59:44.924Z,9.77
2024-01-24T20:02:13.397Z,9.72
2024-01-24T20:04:40.081Z,9.70
2024-01-24T20:07:07.472Z,9.68
2024-01-24T20:09:34.302Z,9.65
2024-01-24T20:12:00.955Z,9.61
2024-01-24T20:14:27.653Z,9.55
2024-01-24T20:16:54.780Z,9.58
2024-01-24T20:19:21.617Z,9.53
2024-01-24T20:21:48.389Z,9.52
2024-01-24T20:24:15.761Z,9.49
2024-01-24T20:26:42.418Z,9.47
2024-01-24T20:29:09.037Z,9.43
2024-01-24T20:31:35.775Z,9.40
2024-01-24T20:34:03.223Z,9.38
2024-01-24T20:36:30.210Z,9.31
2024-01-24T20:38:57.586Z,9.31
2024-01-24T20:41:24.984Z,9.27
2024-01-24T20:43:52.599Z,9.21
2024-01-24T20:46:19.506Z,9.17
2024-01-24T20:48:46.416Z,9.07
2024-01-24T20:51:13.328Z,9.04
2024-01-24T20:53:39.964Z,9.03
2024-01-24T20:56:07.100Z,8.98
2024-01-24T20:58:34.575Z,8.92
2024-01-24T21:01:02.390Z,8.92
2024-01-24T21:03:29.814Z,8.89
2024-01-24T21:05:57.042Z,8.89
2024-01-24T21:08:24.719Z,8.87
2024-01-24T21:10:55.974Z,8.83
2024-01-24T21:13:29.427Z,8.76
2024-01-24T21:15:56.517Z,8.77
2024-01-24T21:18:23.504Z,8.71
2024-01-24T21:20:50.882Z,8.74
2024-01-24T21:23:17.959Z,8.67
2024-01-24T21:25:44.649Z,8.65
2024-01-24T21:28:11.742Z,8.58
2024-01-24T21:30:38.419Z,8.58
2024-01-24T21:33:05.415Z,8.55
2024-01-24T21:35:32.160Z,8.51
2024-01-24T21:37:58.815Z,8.49
2024-01-24T21:40:25.704Z,8.45
2024-01-24T21:42:52.595Z,8.44
2024-01-24T21:45:19.394Z,8.40
2024-01-24T21:47:46.605Z,8.39
2024-01-24T21:50:13.818Z,8.36
2024-01-24T21:52:40.572Z,8.32
2024-01-24T21:55:07.934Z,8.33
2024-01-24T21:57:34.878Z,8.27
2024-01-24T22:00:01.909Z,8.31
2024-01-24T22:02:31.689Z,8.29
2024-01-24T22:04:58.319Z,8.26
2024-01-24T22:07:25.079Z,8.27
2024-01-24T22:09:53.423Z,8.22
2024-01-24T22:12:20.131Z,8.19
2024-01-24T22:14:46.763Z,8.17
2024-01-24T22:17:13.437Z,8.20
2024-01-24T22:19:40.213Z,8.12
2024-01-24T22:22:07.022Z,8.16
2024-01-24T22:24:33.902Z,8.15
2024-01-24T22:27:00.668Z,8.11
2024-01-24T22:29:27.616Z,7.98
2024-01-24T22:31:54.528Z,8.08
2024-01-24T22:34:21.881Z,8.03
2024-01-24T22:36:49.008Z,7.99
2024-01-24T22:39:16.351Z,8.01
2024-01-24T22:41:43.202Z,7.99
2024-01-24T22:44:10.990Z,7.97
2024-01-24T22:46:43.603Z,7.90
2024-01-24T22:49:11.460Z,7.93
2024-01-24T22:51:39.260Z,7.91
2024-01-24T22:54:07.092Z,7.81
2024-01-24T22:56:33.763Z,7.85
2024-01-24T22:59:00.442Z,7.86
2024-01-24T23:01:28.819Z,7.82
2024-01-24T23:03:55.678Z,7.80
2024-01-24T23:06:22.809Z,7.77
2024-01-24T23:08:49.518Z,7.78
2024-01-24T23:11:16.160Z,7.72
2024-01-24T23:13:42.835Z,7.68
2024-01-24T23:16:09.684Z,7.69
2024-01-24T23:18:36.806Z,7.66
2024-01-24T23:21:03.677Z,7.64
2024-01-24T23:23:30.379Z,7.54
2024-01-24T23:25:57.038Z,7.56
2024-01-24T23:28:23.885Z,7.52
2024-01-24T23:30:51.392Z,7.53
2024-01-24T23:33:18.578Z,7.49
2024-01-24T23:35:45.344Z,7.48
2024-01-24T23:38:12.075Z,7.49
2024-01-24T23:40:38.771Z,7.49
2024-01-24T23:43:05.674Z,7.37
2024-01-24T23:45:32.588Z,7.45
2024-01-24T23:47:59.511Z,7.41
2024-01-24T23:50:26.730Z,7.41
2024-01-24T23:52:58.263Z,7.44
2024-01-24T23:55:26.424Z,7.36
2024-01-24T23:57:54.835Z,7.33
